sensor_id;sensor_type;location;lat;lon;timestamp;temperature;humidity
76333;DHT22;71254;53.010;6.508;2023-07-16T00:00:04;17.50;65.00
76333;DHT22;71254;53.010;6.508;2023-07-16T00:02:30;17.50;64.90
76333;DHT22;71254;53.010;6.508;2023-07-16T00:04:55;17.50;64.90
76333;DHT22;71254;53.010;6.508;2023-07-16T00:07:21;17.50;65.00
76333;DHT22;71254;53.010;6.508;2023-07-16T00:09:47;17.50;65.30
76333;DHT22;71254;53.010;6.508;2023-07-16T00:12:12;17.40;65.30
76333;DHT22;71254;53.010;6.508;2023-07-16T00:14:38;17.40;65.30
76333;DHT22;71254;53.010;6.508;2023-07-16T00:17:03;17.40;65.50
76333;DHT22;71254;53.010;6.508;2023-07-16T00:19:29;17.40;65.70
76333;DHT22;71254;53.010;6.508;2023-07-16T00:21:55;17.40;65.70
76333;DHT22;71254;53.010;6.508;2023-07-16T00:24:20;17.40;65.90
76333;DHT22;71254;53.010;6.508;2023-07-16T00:26:46;17.30;65.90
76333;DHT22;71254;53.010;6.508;2023-07-16T00:29:11;17.30;66.10
76333;DHT22;71254;53.010;6.508;2023-07-16T00:31:37;17.30;66.30
76333;DHT22;71254;53.010;6.508;2023-07-16T00:34:03;17.20;66.60
76333;DHT22;71254;53.010;6.508;2023-07-16T00:36:28;17.20;66.80
76333;DHT22;71254;53.010;6.508;2023-07-16T00:38:54;17.20;67.00
76333;DHT22;71254;53.010;6.508;2023-07-16T00:41:20;17.20;67.30
76333;DHT22;71254;53.010;6.508;2023-07-16T00:43:45;17.20;67.50
76333;DHT22;71254;53.010;6.508;2023-07-16T00:46:11;17.10;67.70
76333;DHT22;71254;53.010;6.508;2023-07-16T00:48:37;17.10;67.90
76333;DHT22;71254;53.010;6.508;2023-07-16T00:51:04;17.10;68.10
76333;DHT22;71254;53.010;6.508;2023-07-16T00:53:30;17.10;68.10
76333;DHT22;71254;53.010;6.508;2023-07-16T00:55:56;17.10;68.00
76333;DHT22;71254;53.010;6.508;2023-07-16T00:58:22;17.10;68.30
76333;DHT22;71254;53.010;6.508;2023-07-16T01:00:47;17.10;68.30
76333;DHT22;71254;53.010;6.508;2023-07-16T01:03:14;17.00;68.30
76333;DHT22;71254;53.010;6.508;2023-07-16T01:05:50;17.00;68.60
76333;DHT22;71254;53.010;6.508;2023-07-16T01:11:12;17.00;69.90
76333;DHT22;71254;53.010;6.508;2023-07-16T01:13:39;17.00;69.30
76333;DHT22;71254;53.010;6.508;2023-07-16T01:16:05;16.90;69.40
76333;DHT22;71254;53.010;6.508;2023-07-16T01:18:31;17.00;69.70
76333;DHT22;71254;53.010;6.508;2023-07-16T01:20:57;16.90;69.90
76333;DHT22;71254;53.010;6.508;2023-07-16T01:31:29;16.90;71.30
76333;DHT22;71254;53.010;6.508;2023-07-16T01:33:56;16.80;70.80
76333;DHT22;71254;53.010;6.508;2023-07-16T01:36:24;16.80;71.20
76333;DHT22;71254;53.010;6.508;2023-07-16T01:38:49;16.80;71.50
76333;DHT22;71254;53.010;6.508;2023-07-16T01:41:15;16.80;71.60
76333;DHT22;71254;53.010;6.508;2023-07-16T01:43:41;16.70;71.90
76333;DHT22;71254;53.010;6.508;2023-07-16T01:46:07;16.70;72.10
76333;DHT22;71254;53.010;6.508;2023-07-16T01:48:34;16.70;72.70
76333;DHT22;71254;53.010;6.508;2023-07-16T01:51:01;16.70;73.20
76333;DHT22;71254;53.010;6.508;2023-07-16T01:53:27;16.70;73.40
76333;DHT22;71254;53.010;6.508;2023-07-16T01:55:53;16.70;73.70
76333;DHT22;71254;53.010;6.508;2023-07-16T01:58:19;16.70;74.20
76333;DHT22;71254;53.010;6.508;2023-07-16T02:00:45;16.70;74.40
76333;DHT22;71254;53.010;6.508;2023-07-16T02:03:11;16.70;74.50
76333;DHT22;71254;53.010;6.508;2023-07-16T02:05:37;16.60;74.50
76333;DHT22;71254;53.010;6.508;2023-07-16T02:08:03;16.60;75.20
76333;DHT22;71254;53.010;6.508;2023-07-16T02:10:28;16.60;74.30
76333;DHT22;71254;53.010;6.508;2023-07-16T02:12:54;16.60;74.10
76333;DHT22;71254;53.010;6.508;2023-07-16T02:15:19;16.70;73.70
76333;DHT22;71254;53.010;6.508;2023-07-16T02:17:45;16.70;73.30
76333;DHT22;71254;53.010;6.508;2023-07-16T02:20:11;16.70;72.80
76333;DHT22;71254;53.010;6.508;2023-07-16T02:22:37;16.80;72.30
76333;DHT22;71254;53.010;6.508;2023-07-16T02:25:03;16.80;71.70
76333;DHT22;71254;53.010;6.508;2023-07-16T02:27:28;16.90;71.60
76333;DHT22;71254;53.010;6.508;2023-07-16T02:29:54;16.80;71.20
76333;DHT22;71254;53.010;6.508;2023-07-16T02:32:20;16.90;70.90
76333;DHT22;71254;53.010;6.508;2023-07-16T02:34:46;16.90;70.60
76333;DHT22;71254;53.010;6.508;2023-07-16T02:37:12;16.80;70.40
76333;DHT22;71254;53.010;6.508;2023-07-16T02:39:39;16.80;70.30
76333;DHT22;71254;53.010;6.508;2023-07-16T02:42:05;16.80;70.10
76333;DHT22;71254;53.010;6.508;2023-07-16T02:44:30;16.90;70.10
76333;DHT22;71254;53.010;6.508;2023-07-16T02:46:56;16.90;70.00
76333;DHT22;71254;53.010;6.508;2023-07-16T02:49:21;16.90;70.00
76333;DHT22;71254;53.010;6.508;2023-07-16T02:51:47;16.80;70.00
76333;DHT22;71254;53.010;6.508;2023-07-16T02:54:13;16.90;69.90
76333;DHT22;71254;53.010;6.508;2023-07-16T02:56:38;16.80;69.90
76333;DHT22;71254;53.010;6.508;2023-07-16T02:59:04;16.90;69.90
76333;DHT22;71254;53.010;6.508;2023-07-16T03:01:30;16.80;69.80
76333;DHT22;71254;53.010;6.508;2023-07-16T03:03:56;16.80;69.80
76333;DHT22;71254;53.010;6.508;2023-07-16T03:06:21;16.80;69.90
76333;DHT22;71254;53.010;6.508;2023-07-16T03:08:47;16.80;69.90
76333;DHT22;71254;53.010;6.508;2023-07-16T03:11:13;16.80;69.90
76333;DHT22;71254;53.010;6.508;2023-07-16T03:13:39;16.80;70.50
76333;DHT22;71254;53.010;6.508;2023-07-16T03:16:04;16.80;70.00
76333;DHT22;71254;53.010;6.508;2023-07-16T03:18:30;16.80;69.90
76333;DHT22;71254;53.010;6.508;2023-07-16T03:20:57;16.70;70.00
76333;DHT22;71254;53.010;6.508;2023-07-16T03:23:23;16.70;70.30
76333;DHT22;71254;53.010;6.508;2023-07-16T03:25:49;16.70;70.40
76333;DHT22;71254;53.010;6.508;2023-07-16T03:28:14;16.70;70.40
76333;DHT22;71254;53.010;6.508;2023-07-16T03:30:40;16.70;70.70
76333;DHT22;71254;53.010;6.508;2023-07-16T03:33:05;16.70;70.90
76333;DHT22;71254;53.010;6.508;2023-07-16T03:35:31;16.70;71.00
76333;DHT22;71254;53.010;6.508;2023-07-16T03:37:57;16.60;71.10
76333;DHT22;71254;53.010;6.508;2023-07-16T03:40:26;16.60;71.10
76333;DHT22;71254;53.010;6.508;2023-07-16T03:42:52;16.60;71.30
76333;DHT22;71254;53.010;6.508;2023-07-16T03:45:18;16.60;71.30
76333;DHT22;71254;53.010;6.508;2023-07-16T03:47:44;16.60;71.30
76333;DHT22;71254;53.010;6.508;2023-07-16T03:50:10;16.60;71.40
76333;DHT22;71254;53.010;6.508;2023-07-16T03:52:35;16.60;71.40
76333;DHT22;71254;53.010;6.508;2023-07-16T03:55:01;16.60;71.40
76333;DHT22;71254;53.010;6.508;2023-07-16T03:57:30;16.60;71.60
76333;DHT22;71254;53.010;6.508;2023-07-16T03:59:56;16.60;71.90
76333;DHT22;71254;53.010;6.508;2023-07-16T04:02:21;16.60;71.90
76333;DHT22;71254;53.010;6.508;2023-07-16T04:04:47;16.60;72.00
76333;DHT22;71254;53.010;6.508;2023-07-16T04:07:13;16.60;72.10
76333;DHT22;71254;53.010;6.508;2023-07-16T04:09:39;16.60;72.00
76333;DHT22;71254;53.010;6.508;2023-07-16T04:12:06;16.60;72.00
76333;DHT22;71254;53.010;6.508;2023-07-16T04:14:32;16.70;72.20
76333;DHT22;71254;53.010;6.508;2023-07-16T04:16:58;16.70;72.20
76333;DHT22;71254;53.010;6.508;2023-07-16T04:19:23;16.70;72.20
76333;DHT22;71254;53.010;6.508;2023-07-16T04:21:49;16.70;72.20
76333;DHT22;71254;53.010;6.508;2023-07-16T04:24:15;16.80;72.20
76333;DHT22;71254;53.010;6.508;2023-07-16T04:26:40;16.80;72.30
76333;DHT22;71254;53.010;6.508;2023-07-16T04:29:06;16.80;72.20
76333;DHT22;71254;53.010;6.508;2023-07-16T04:31:32;16.80;72.30
76333;DHT22;71254;53.010;6.508;2023-07-16T04:33:57;16.90;72.30
76333;DHT22;71254;53.010;6.508;2023-07-16T04:36:23;16.90;72.20
76333;DHT22;71254;53.010;6.508;2023-07-16T04:38:48;16.90;72.10
76333;DHT22;71254;53.010;6.508;2023-07-16T04:41:15;17.00;72.20
76333;DHT22;71254;53.010;6.508;2023-07-16T04:43:41;17.00;72.30
76333;DHT22;71254;53.010;6.508;2023-07-16T04:46:07;17.00;72.30
76333;DHT22;71254;53.010;6.508;2023-07-16T04:48:32;17.10;72.30
76333;DHT22;71254;53.010;6.508;2023-07-16T04:50:58;17.20;72.30
76333;DHT22;71254;53.010;6.508;2023-07-16T04:53:25;17.20;72.30
76333;DHT22;71254;53.010;6.508;2023-07-16T04:55:51;17.20;72.30
76333;DHT22;71254;53.010;6.508;2023-07-16T04:58:16;17.20;72.40
76333;DHT22;71254;53.010;6.508;2023-07-16T05:00:42;17.30;72.40
76333;DHT22;71254;53.010;6.508;2023-07-16T05:03:08;17.30;72.30
76333;DHT22;71254;53.010;6.508;2023-07-16T05:05:34;17.40;72.20
76333;DHT22;71254;53.010;6.508;2023-07-16T05:08:01;17.40;72.30
76333;DHT22;71254;53.010;6.508;2023-07-16T05:10:27;17.50;72.30
76333;DHT22;71254;53.010;6.508;2023-07-16T05:12:53;17.50;72.00
76333;DHT22;71254;53.010;6.508;2023-07-16T05:15:19;17.50;71.90
76333;DHT22;71254;53.010;6.508;2023-07-16T05:17:44;17.60;71.60
76333;DHT22;71254;53.010;6.508;2023-07-16T05:20:10;17.70;71.60
76333;DHT22;71254;53.010;6.508;2023-07-16T05:22:36;17.70;71.40
76333;DHT22;71254;53.010;6.508;2023-07-16T05:25:02;17.70;71.30
76333;DHT22;71254;53.010;6.508;2023-07-16T05:27:28;17.80;71.20
76333;DHT22;71254;53.010;6.508;2023-07-16T05:29:54;17.90;71.30
76333;DHT22;71254;53.010;6.508;2023-07-16T05:32:21;17.90;71.20
76333;DHT22;71254;53.010;6.508;2023-07-16T05:34:47;18.00;71.00
76333;DHT22;71254;53.010;6.508;2023-07-16T05:37:13;18.00;70.90
76333;DHT22;71254;53.010;6.508;2023-07-16T05:39:39;18.10;71.70
76333;DHT22;71254;53.010;6.508;2023-07-16T05:42:05;18.10;70.70
76333;DHT22;71254;53.010;6.508;2023-07-16T05:44:31;18.20;70.60
76333;DHT22;71254;53.010;6.508;2023-07-16T05:46:57;18.30;71.30
76333;DHT22;71254;53.010;6.508;2023-07-16T05:49:23;18.40;70.10
76333;DHT22;71254;53.010;6.508;2023-07-16T05:51:49;18.40;70.20
76333;DHT22;71254;53.010;6.508;2023-07-16T05:54:15;18.40;70.10
76333;DHT22;71254;53.010;6.508;2023-07-16T05:56:40;18.50;70.00
76333;DHT22;71254;53.010;6.508;2023-07-16T05:59:06;18.50;69.80
76333;DHT22;71254;53.010;6.508;2023-07-16T06:01:32;18.60;69.90
76333;DHT22;71254;53.010;6.508;2023-07-16T06:03:57;18.70;69.40
76333;DHT22;71254;53.010;6.508;2023-07-16T06:06:23;18.70;69.20
76333;DHT22;71254;53.010;6.508;2023-07-16T06:08:49;18.80;69.20
76333;DHT22;71254;53.010;6.508;2023-07-16T06:11:14;19.00;68.90
76333;DHT22;71254;53.010;6.508;2023-07-16T06:13:40;19.10;68.70
76333;DHT22;71254;53.010;6.508;2023-07-16T06:16:06;19.20;68.60
76333;DHT22;71254;53.010;6.508;2023-07-16T06:18:31;19.20;68.40
76333;DHT22;71254;53.010;6.508;2023-07-16T06:20:57;19.30;68.10
76333;DHT22;71254;53.010;6.508;2023-07-16T06:23:23;19.30;67.70
76333;DHT22;71254;53.010;6.508;2023-07-16T06:25:53;19.40;67.40
76333;DHT22;71254;53.010;6.508;2023-07-16T06:28:18;19.40;67.30
76333;DHT22;71254;53.010;6.508;2023-07-16T06:30:44;19.60;67.20
76333;DHT22;71254;53.010;6.508;2023-07-16T06:33:10;19.60;67.10
76333;DHT22;71254;53.010;6.508;2023-07-16T06:35:35;19.60;67.00
76333;DHT22;71254;53.010;6.508;2023-07-16T06:38:01;19.60;66.80
76333;DHT22;71254;53.010;6.508;2023-07-16T06:40:28;19.60;66.90
76333;DHT22;71254;53.010;6.508;2023-07-16T06:42:54;19.70;66.80
76333;DHT22;71254;53.010;6.508;2023-07-16T06:45:20;19.70;66.70
76333;DHT22;71254;53.010;6.508;2023-07-16T06:47:46;19.80;66.60
76333;DHT22;71254;53.010;6.508;2023-07-16T06:50:11;19.90;66.30
76333;DHT22;71254;53.010;6.508;2023-07-16T06:52:37;20.10;66.50
76333;DHT22;71254;53.010;6.508;2023-07-16T06:55:03;20.30;65.70
76333;DHT22;71254;53.010;6.508;2023-07-16T06:57:28;20.30;64.80
76333;DHT22;71254;53.010;6.508;2023-07-16T06:59:54;20.20;64.90
76333;DHT22;71254;53.010;6.508;2023-07-16T07:02:20;20.10;65.00
76333;DHT22;71254;53.010;6.508;2023-07-16T07:04:46;20.00;65.00
76333;DHT22;71254;53.010;6.508;2023-07-16T07:07:11;19.90;65.10
76333;DHT22;71254;53.010;6.508;2023-07-16T07:09:37;19.80;65.40
76333;DHT22;71254;53.010;6.508;2023-07-16T07:12:03;19.80;65.90
76333;DHT22;71254;53.010;6.508;2023-07-16T07:14:29;20.00;64.90
76333;DHT22;71254;53.010;6.508;2023-07-16T07:16:54;20.10;64.80
76333;DHT22;71254;53.010;6.508;2023-07-16T07:19:20;20.20;64.20
76333;DHT22;71254;53.010;6.508;2023-07-16T07:21:46;20.20;63.80
76333;DHT22;71254;53.010;6.508;2023-07-16T07:24:12;20.20;63.70
76333;DHT22;71254;53.010;6.508;2023-07-16T07:26:38;20.30;63.70
76333;DHT22;71254;53.010;6.508;2023-07-16T07:29:03;20.40;63.60
76333;DHT22;71254;53.010;6.508;2023-07-16T07:31:29;20.50;63.30
76333;DHT22;71254;53.010;6.508;2023-07-16T07:33:54;20.50;63.50
76333;DHT22;71254;53.010;6.508;2023-07-16T07:36:22;20.60;62.50
76333;DHT22;71254;53.010;6.508;2023-07-16T07:38:48;20.70;62.50
76333;DHT22;71254;53.010;6.508;2023-07-16T07:41:14;21.00;62.10
76333;DHT22;71254;53.010;6.508;2023-07-16T07:43:39;21.20;61.10
76333;DHT22;71254;53.010;6.508;2023-07-16T07:46:05;21.30;61.10
76333;DHT22;71254;53.010;6.508;2023-07-16T07:48:31;21.40;60.40
76333;DHT22;71254;53.010;6.508;2023-07-16T07:50:57;21.50;60.30
76333;DHT22;71254;53.010;6.508;2023-07-16T07:53:23;21.50;59.90
76333;DHT22;71254;53.010;6.508;2023-07-16T07:55:48;21.50;59.60
76333;DHT22;71254;53.010;6.508;2023-07-16T07:58:14;21.40;59.40
76333;DHT22;71254;53.010;6.508;2023-07-16T08:00:40;21.30;59.50
76333;DHT22;71254;53.010;6.508;2023-07-16T08:03:05;21.20;59.30
76333;DHT22;71254;53.010;6.508;2023-07-16T08:05:31;21.10;59.60
76333;DHT22;71254;53.010;6.508;2023-07-16T08:07:57;21.10;59.40
76333;DHT22;71254;53.010;6.508;2023-07-16T08:10:22;21.00;59.70
76333;DHT22;71254;53.010;6.508;2023-07-16T08:12:48;21.10;60.20
76333;DHT22;71254;53.010;6.508;2023-07-16T08:15:14;21.10;60.10
76333;DHT22;71254;53.010;6.508;2023-07-16T08:17:44;21.10;60.30
76333;DHT22;71254;53.010;6.508;2023-07-16T08:20:11;21.10;59.70
76333;DHT22;71254;53.010;6.508;2023-07-16T08:22:37;21.20;59.90
76333;DHT22;71254;53.010;6.508;2023-07-16T08:25:03;21.20;59.40
76333;DHT22;71254;53.010;6.508;2023-07-16T08:27:30;21.30;59.40
76333;DHT22;71254;53.010;6.508;2023-07-16T08:29:55;21.40;59.40
76333;DHT22;71254;53.010;6.508;2023-07-16T08:32:21;21.60;59.50
76333;DHT22;71254;53.010;6.508;2023-07-16T08:34:47;21.70;59.00
76333;DHT22;71254;53.010;6.508;2023-07-16T08:37:13;21.70;58.10
76333;DHT22;71254;53.010;6.508;2023-07-16T08:39:39;21.60;58.90
76333;DHT22;71254;53.010;6.508;2023-07-16T08:42:05;21.90;60.20
76333;DHT22;71254;53.010;6.508;2023-07-16T08:44:31;22.50;59.50
76333;DHT22;71254;53.010;6.508;2023-07-16T08:46:57;22.70;57.60
76333;DHT22;71254;53.010;6.508;2023-07-16T08:49:23;22.90;57.30
76333;DHT22;71254;53.010;6.508;2023-07-16T08:51:49;23.20;56.60
76333;DHT22;71254;53.010;6.508;2023-07-16T08:54:15;23.60;56.80
76333;DHT22;71254;53.010;6.508;2023-07-16T08:56:43;24.00;55.00
76333;DHT22;71254;53.010;6.508;2023-07-16T08:59:10;24.20;54.60
76333;DHT22;71254;53.010;6.508;2023-07-16T09:01:37;24.70;53.80
76333;DHT22;71254;53.010;6.508;2023-07-16T09:04:03;24.90;53.30
76333;DHT22;71254;53.010;6.508;2023-07-16T09:06:28;25.10;52.80
76333;DHT22;71254;53.010;6.508;2023-07-16T09:08:54;25.20;51.30
76333;DHT22;71254;53.010;6.508;2023-07-16T09:11:21;24.90;50.90
76333;DHT22;71254;53.010;6.508;2023-07-16T09:13:48;24.60;50.80
76333;DHT22;71254;53.010;6.508;2023-07-16T09:16:13;24.30;51.20
76333;DHT22;71254;53.010;6.508;2023-07-16T09:18:42;23.80;50.70
76333;DHT22;71254;53.010;6.508;2023-07-16T09:21:08;23.40;51.10
76333;DHT22;71254;53.010;6.508;2023-07-16T09:23:34;23.10;52.40
76333;DHT22;71254;53.010;6.508;2023-07-16T09:26:00;22.80;53.00
76333;DHT22;71254;53.010;6.508;2023-07-16T09:28:26;22.60;53.60
76333;DHT22;71254;53.010;6.508;2023-07-16T09:30:52;22.50;54.40
76333;DHT22;71254;53.010;6.508;2023-07-16T09:33:19;22.50;54.60
76333;DHT22;71254;53.010;6.508;2023-07-16T09:35:48;22.60;54.90
76333;DHT22;71254;53.010;6.508;2023-07-16T09:38:14;22.60;54.60
76333;DHT22;71254;53.010;6.508;2023-07-16T09:40:40;22.60;54.70
76333;DHT22;71254;53.010;6.508;2023-07-16T09:43:09;22.60;55.90
76333;DHT22;71254;53.010;6.508;2023-07-16T09:45:35;22.80;55.10
76333;DHT22;71254;53.010;6.508;2023-07-16T09:48:01;22.90;55.00
76333;DHT22;71254;53.010;6.508;2023-07-16T09:50:32;22.80;54.00
76333;DHT22;71254;53.010;6.508;2023-07-16T09:52:59;22.70;53.60
76333;DHT22;71254;53.010;6.508;2023-07-16T09:55:25;22.60;53.80
76333;DHT22;71254;53.010;6.508;2023-07-16T09:57:56;22.60;54.70
76333;DHT22;71254;53.010;6.508;2023-07-16T10:00:23;22.60;54.20
76333;DHT22;71254;53.010;6.508;2023-07-16T10:02:51;22.60;54.00
76333;DHT22;71254;53.010;6.508;2023-07-16T10:05:24;22.60;53.80
76333;DHT22;71254;53.010;6.508;2023-07-16T10:07:53;22.60;54.10
76333;DHT22;71254;53.010;6.508;2023-07-16T10:10:20;22.70;54.00
76333;DHT22;71254;53.010;6.508;2023-07-16T10:13:02;22.50;54.10
76333;DHT22;71254;53.010;6.508;2023-07-16T10:15:28;22.60;55.50
76333;DHT22;71254;53.010;6.508;2023-07-16T10:17:55;22.60;55.10
76333;DHT22;71254;53.010;6.508;2023-07-16T10:20:35;22.60;54.80
76333;DHT22;71254;53.010;6.508;2023-07-16T10:23:16;22.80;54.70
76333;DHT22;71254;53.010;6.508;2023-07-16T10:26:01;22.90;55.60
76333;DHT22;71254;53.010;6.508;2023-07-16T10:28:27;23.10;54.10
76333;DHT22;71254;53.010;6.508;2023-07-16T10:30:52;23.20;54.10
76333;DHT22;71254;53.010;6.508;2023-07-16T10:33:18;23.40;53.30
76333;DHT22;71254;53.010;6.508;2023-07-16T10:35:45;23.40;53.10
76333;DHT22;71254;53.010;6.508;2023-07-16T10:38:12;23.30;53.20
76333;DHT22;71254;53.010;6.508;2023-07-16T10:40:45;23.30;53.40
76333;DHT22;71254;53.010;6.508;2023-07-16T10:43:14;23.30;52.50
76333;DHT22;71254;53.010;6.508;2023-07-16T10:45:40;23.20;53.20
76333;DHT22;71254;53.010;6.508;2023-07-16T10:48:06;23.10;54.10
76333;DHT22;71254;53.010;6.508;2023-07-16T10:50:32;22.90;53.60
76333;DHT22;71254;53.010;6.508;2023-07-16T10:52:59;22.80;53.40
76333;DHT22;71254;53.010;6.508;2023-07-16T10:55:27;22.70;53.50
76333;DHT22;71254;53.010;6.508;2023-07-16T10:57:53;22.60;54.30
76333;DHT22;71254;53.010;6.508;2023-07-16T11:00:21;22.60;54.50
76333;DHT22;71254;53.010;6.508;2023-07-16T11:02:47;22.60;54.50
76333;DHT22;71254;53.010;6.508;2023-07-16T11:05:14;22.70;54.50
76333;DHT22;71254;53.010;6.508;2023-07-16T11:07:44;22.90;55.00
76333;DHT22;71254;53.010;6.508;2023-07-16T11:10:10;23.00;53.30
76333;DHT22;71254;53.010;6.508;2023-07-16T11:12:36;22.90;53.60
76333;DHT22;71254;53.010;6.508;2023-07-16T11:15:03;22.80;53.30
76333;DHT22;71254;53.010;6.508;2023-07-16T11:17:28;22.70;53.60
76333;DHT22;71254;53.010;6.508;2023-07-16T11:19:55;22.70;53.60
76333;DHT22;71254;53.010;6.508;2023-07-16T11:22:25;22.70;53.90
76333;DHT22;71254;53.010;6.508;2023-07-16T11:24:55;22.60;54.00
76333;DHT22;71254;53.010;6.508;2023-07-16T11:27:22;22.80;54.30
76333;DHT22;71254;53.010;6.508;2023-07-16T11:29:53;22.80;54.30
76333;DHT22;71254;53.010;6.508;2023-07-16T11:32:36;22.80;54.30
76333;DHT22;71254;53.010;6.508;2023-07-16T11:35:04;22.60;54.40
76333;DHT22;71254;53.010;6.508;2023-07-16T11:37:31;22.50;54.70
76333;DHT22;71254;53.010;6.508;2023-07-16T11:39:57;22.30;55.20
76333;DHT22;71254;53.010;6.508;2023-07-16T11:42:34;22.20;55.70
76333;DHT22;71254;53.010;6.508;2023-07-16T11:45:00;22.10;55.60
76333;DHT22;71254;53.010;6.508;2023-07-16T11:47:26;22.00;56.00
76333;DHT22;71254;53.010;6.508;2023-07-16T11:49:52;21.90;57.10
76333;DHT22;71254;53.010;6.508;2023-07-16T11:52:26;21.90;57.60
76333;DHT22;71254;53.010;6.508;2023-07-16T11:54:52;22.00;58.50
76333;DHT22;71254;53.010;6.508;2023-07-16T11:57:18;22.00;57.70
76333;DHT22;71254;53.010;6.508;2023-07-16T11:59:44;22.10;57.50
76333;DHT22;71254;53.010;6.508;2023-07-16T12:02:10;22.20;57.70
76333;DHT22;71254;53.010;6.508;2023-07-16T12:04:35;22.30;57.20
76333;DHT22;71254;53.010;6.508;2023-07-16T12:07:01;22.40;56.60
76333;DHT22;71254;53.010;6.508;2023-07-16T12:09:27;22.40;56.60
76333;DHT22;71254;53.010;6.508;2023-07-16T12:11:52;22.40;56.40
76333;DHT22;71254;53.010;6.508;2023-07-16T12:14:18;22.40;56.70
76333;DHT22;71254;53.010;6.508;2023-07-16T12:16:44;22.40;56.90
76333;DHT22;71254;53.010;6.508;2023-07-16T12:19:09;22.50;56.50
76333;DHT22;71254;53.010;6.508;2023-07-16T12:21:35;23.00;56.70
76333;DHT22;71254;53.010;6.508;2023-07-16T12:24:01;23.30;55.70
76333;DHT22;71254;53.010;6.508;2023-07-16T12:26:27;23.40;54.70
76333;DHT22;71254;53.010;6.508;2023-07-16T12:28:53;23.20;54.90
76333;DHT22;71254;53.010;6.508;2023-07-16T12:31:19;22.90;55.00
76333;DHT22;71254;53.010;6.508;2023-07-16T12:33:48;22.70;56.60
76333;DHT22;71254;53.010;6.508;2023-07-16T12:36:14;22.40;59.30
76333;DHT22;71254;53.010;6.508;2023-07-16T12:38:41;21.80;61.70
76333;DHT22;71254;53.010;6.508;2023-07-16T12:41:07;21.60;64.70
76333;DHT22;71254;53.010;6.508;2023-07-16T12:43:33;21.80;66.10
76333;DHT22;71254;53.010;6.508;2023-07-16T12:46:04;22.10;65.70
76333;DHT22;71254;53.010;6.508;2023-07-16T12:48:32;22.10;65.40
76333;DHT22;71254;53.010;6.508;2023-07-16T12:50:58;22.00;64.40
76333;DHT22;71254;53.010;6.508;2023-07-16T12:53:24;21.80;64.20
76333;DHT22;71254;53.010;6.508;2023-07-16T12:55:50;21.60;64.10
76333;DHT22;71254;53.010;6.508;2023-07-16T12:58:16;21.40;65.00
76333;DHT22;71254;53.010;6.508;2023-07-16T13:00:41;21.20;65.40
76333;DHT22;71254;53.010;6.508;2023-07-16T13:03:07;21.10;66.00
76333;DHT22;71254;53.010;6.508;2023-07-16T13:05:40;21.10;67.20
76333;DHT22;71254;53.010;6.508;2023-07-16T13:08:05;21.30;67.80
76333;DHT22;71254;53.010;6.508;2023-07-16T13:10:31;21.50;66.70
76333;DHT22;71254;53.010;6.508;2023-07-16T13:12:57;21.70;65.20
76333;DHT22;71254;53.010;6.508;2023-07-16T13:15:22;21.60;64.10
76333;DHT22;71254;53.010;6.508;2023-07-16T13:17:48;21.50;62.90
76333;DHT22;71254;53.010;6.508;2023-07-16T13:20:14;21.30;63.70
76333;DHT22;71254;53.010;6.508;2023-07-16T13:22:40;21.10;64.80
76333;DHT22;71254;53.010;6.508;2023-07-16T13:25:05;21.00;65.50
76333;DHT22;71254;53.010;6.508;2023-07-16T13:27:31;20.90;67.00
76333;DHT22;71254;53.010;6.508;2023-07-16T13:29:57;20.80;66.70
76333;DHT22;71254;53.010;6.508;2023-07-16T13:32:22;20.60;67.60
76333;DHT22;71254;53.010;6.508;2023-07-16T13:34:48;20.60;68.20
76333;DHT22;71254;53.010;6.508;2023-07-16T13:37:14;20.70;69.00
76333;DHT22;71254;53.010;6.508;2023-07-16T13:39:40;20.80;68.40
76333;DHT22;71254;53.010;6.508;2023-07-16T13:42:05;21.00;69.00
76333;DHT22;71254;53.010;6.508;2023-07-16T13:44:35;21.70;69.60
76333;DHT22;71254;53.010;6.508;2023-07-16T13:47:01;22.70;68.10
76333;DHT22;71254;53.010;6.508;2023-07-16T13:49:26;23.20;64.60
76333;DHT22;71254;53.010;6.508;2023-07-16T13:51:52;23.40;63.00
76333;DHT22;71254;53.010;6.508;2023-07-16T13:54:18;23.20;61.90
76333;DHT22;71254;53.010;6.508;2023-07-16T13:56:44;23.10;61.20
76333;DHT22;71254;53.010;6.508;2023-07-16T13:59:09;22.90;60.50
76333;DHT22;71254;53.010;6.508;2023-07-16T14:01:39;23.10;62.10
76333;DHT22;71254;53.010;6.508;2023-07-16T14:04:05;24.00;59.60
76333;DHT22;71254;53.010;6.508;2023-07-16T14:06:31;24.50;58.00
76333;DHT22;71254;53.010;6.508;2023-07-16T14:08:57;24.30;57.00
76333;DHT22;71254;53.010;6.508;2023-07-16T14:11:23;23.90;56.30
76333;DHT22;71254;53.010;6.508;2023-07-16T14:13:49;23.40;55.80
76333;DHT22;71254;53.010;6.508;2023-07-16T14:16:17;23.10;55.40
76333;DHT22;71254;53.010;6.508;2023-07-16T14:18:43;22.90;55.70
76333;DHT22;71254;53.010;6.508;2023-07-16T14:21:09;22.80;55.40
76333;DHT22;71254;53.010;6.508;2023-07-16T14:23:34;23.00;56.00
76333;DHT22;71254;53.010;6.508;2023-07-16T14:26:00;23.90;55.10
76333;DHT22;71254;53.010;6.508;2023-07-16T14:28:26;24.40;53.60
76333;DHT22;71254;53.010;6.508;2023-07-16T14:30:51;24.00;52.90
76333;DHT22;71254;53.010;6.508;2023-07-16T14:33:17;23.70;53.50
76333;DHT22;71254;53.010;6.508;2023-07-16T14:35:42;23.80;54.20
76333;DHT22;71254;53.010;6.508;2023-07-16T14:38:08;24.30;53.10
76333;DHT22;71254;53.010;6.508;2023-07-16T14:40:34;24.60;52.50
76333;DHT22;71254;53.010;6.508;2023-07-16T14:42:59;24.80;51.00
76333;DHT22;71254;53.010;6.508;2023-07-16T14:45:25;24.40;50.40
76333;DHT22;71254;53.010;6.508;2023-07-16T14:47:51;24.00;50.90
76333;DHT22;71254;53.010;6.508;2023-07-16T14:50:16;23.80;50.60
76333;DHT22;71254;53.010;6.508;2023-07-16T14:52:42;23.50;50.80
76333;DHT22;71254;53.010;6.508;2023-07-16T14:55:08;23.40;51.00
76333;DHT22;71254;53.010;6.508;2023-07-16T14:57:34;24.10;51.10
76333;DHT22;71254;53.010;6.508;2023-07-16T14:59:59;24.30;50.10
76333;DHT22;71254;53.010;6.508;2023-07-16T15:02:25;24.00;50.20
76333;DHT22;71254;53.010;6.508;2023-07-16T15:04:51;24.00;50.00
76333;DHT22;71254;53.010;6.508;2023-07-16T15:07:16;23.80;50.00
76333;DHT22;71254;53.010;6.508;2023-07-16T15:09:42;23.60;49.90
76333;DHT22;71254;53.010;6.508;2023-07-16T15:12:08;23.50;50.40
76333;DHT22;71254;53.010;6.508;2023-07-16T15:14:34;23.50;49.70
76333;DHT22;71254;53.010;6.508;2023-07-16T15:17:00;23.50;49.70
76333;DHT22;71254;53.010;6.508;2023-07-16T15:19:26;23.80;49.90
76333;DHT22;71254;53.010;6.508;2023-07-16T15:21:51;24.10;49.10
76333;DHT22;71254;53.010;6.508;2023-07-16T15:24:17;24.00;48.70
76333;DHT22;71254;53.010;6.508;2023-07-16T15:26:42;23.60;49.10
76333;DHT22;71254;53.010;6.508;2023-07-16T15:29:08;23.20;50.10
76333;DHT22;71254;53.010;6.508;2023-07-16T15:31:34;23.20;51.00
76333;DHT22;71254;53.010;6.508;2023-07-16T15:33:59;23.60;50.20